sensor_id;sensor_type;location;lat;lon;timestamp;P1;durP1;ratioP1;P2;durP2;ratioP2
23676;SDS011;31493;49.058;12.190;2022-08-01T00:01:11;2.80;;;1.80;;
23676;SDS011;31493;49.058;12.190;2022-08-01T00:03:39;3.50;;;1.70;;
23676;SDS011;31493;49.058;12.190;2022-08-01T00:06:06;3.17;;;1.63;;
23676;SDS011;31493;49.058;12.190;2022-08-01T00:08:33;3.80;;;1.70;;
23676;SDS011;31493;49.058;12.190;2022-08-01T00:11:01;4.00;;;1.58;;
23676;SDS011;31493;49.058;12.190;2022-08-01T00:13:29;3.13;;;1.83;;
23676;SDS011;31493;49.058;12.190;2022-08-01T00:15:56;5.13;;;1.60;;
23676;SDS011;31493;49.058;12.190;2022-08-01T00:18:23;3.65;;;1.95;;
23676;SDS011;31493;49.058;12.190;2022-08-01T00:20:50;3.00;;;1.80;;
23676;SDS011;31493;49.058;12.190;2022-08-01T00:23:17;5.70;;;1.92;;
23676;SDS011;31493;49.058;12.190;2022-08-01T00:25:44;2.67;;;1.50;;
23676;SDS011;31493;49.058;12.190;2022-08-01T00:28:12;3.25;;;1.67;;
23676;SDS011;31493;49.058;12.190;2022-08-01T00:30:39;2.88;;;1.70;;
23676;SDS011;31493;49.058;12.190;2022-08-01T00:33:06;3.78;;;1.60;;
23676;SDS011;31493;49.058;12.190;2022-08-01T00:35:33;4.53;;;1.75;;
23676;SDS011;31493;49.058;12.190;2022-08-01T00:38:01;3.65;;;2.13;;
23676;SDS011;31493;49.058;12.190;2022-08-01T00:40:28;2.13;;;1.70;;
23676;SDS011;31493;49.058;12.190;2022-08-01T00:42:55;2.10;;;1.45;;
23676;SDS011;31493;49.058;12.190;2022-08-01T00:45:23;2.13;;;1.65;;
23676;SDS011;31493;49.058;12.190;2022-08-01T00:47:50;3.70;;;2.05;;
23676;SDS011;31493;49.058;12.190;2022-08-01T00:50:17;2.40;;;2.00;;
23676;SDS011;31493;49.058;12.190;2022-08-01T00:52:45;2.38;;;1.70;;
23676;SDS011;31493;49.058;12.190;2022-08-01T00:55:13;3.28;;;1.90;;
23676;SDS011;31493;49.058;12.190;2022-08-01T00:57:40;2.30;;;1.80;;
23676;SDS011;31493;49.058;12.190;2022-08-01T01:00:08;3.88;;;1.88;;
23676;SDS011;31493;49.058;12.190;2022-08-01T01:02:37;2.83;;;1.80;;
23676;SDS011;31493;49.058;12.190;2022-08-01T01:05:05;9.00;;;1.70;;
23676;SDS011;31493;49.058;12.190;2022-08-01T01:07:34;3.78;;;1.80;;
23676;SDS011;31493;49.058;12.190;2022-08-01T01:10:09;2.88;;;1.85;;
23676;SDS011;31493;49.058;12.190;2022-08-01T01:12:42;4.55;;;1.77;;
23676;SDS011;31493;49.058;12.190;2022-08-01T01:15:14;5.55;;;1.70;;
23676;SDS011;31493;49.058;12.190;2022-08-01T01:17:48;5.78;;;1.80;;
23676;SDS011;31493;49.058;12.190;2022-08-01T01:20:21;4.22;;;1.67;;
23676;SDS011;31493;49.058;12.190;2022-08-01T01:22:55;2.22;;;1.65;;
23676;SDS011;31493;49.058;12.190;2022-08-01T01:25:39;5.78;;;1.83;;
23676;SDS011;31493;49.058;12.190;2022-08-01T01:28:15;4.22;;;1.80;;
23676;SDS011;31493;49.058;12.190;2022-08-01T01:30:49;5.45;;;2.05;;
23676;SDS011;31493;49.058;12.190;2022-08-01T01:33:18;3.17;;;1.88;;
23676;SDS011;31493;49.058;12.190;2022-08-01T01:35:48;4.78;;;1.75;;
23676;SDS011;31493;49.058;12.190;2022-08-01T01:38:20;4.65;;;1.95;;
23676;SDS011;31493;49.058;12.190;2022-08-01T01:40:51;2.45;;;1.80;;
23676;SDS011;31493;49.058;12.190;2022-08-01T01:43:20;5.32;;;1.65;;
23676;SDS011;31493;49.058;12.190;2022-08-01T01:48:19;2.78;;;1.80;;
23676;SDS011;31493;49.058;12.190;2022-08-01T01:50:47;6.57;;;2.10;;
23676;SDS011;31493;49.058;12.190;2022-08-01T01:53:17;3.60;;;1.90;;
23676;SDS011;31493;49.058;12.190;2022-08-01T01:55:47;5.10;;;2.03;;
23676;SDS011;31493;49.058;12.190;2022-08-01T01:58:19;3.72;;;2.00;;
23676;SDS011;31493;49.058;12.190;2022-08-01T02:00:48;3.53;;;2.03;;
23676;SDS011;31493;49.058;12.190;2022-08-01T02:03:18;4.13;;;1.92;;
23676;SDS011;31493;49.058;12.190;2022-08-01T02:08:15;3.75;;;2.05;;
23676;SDS011;31493;49.058;12.190;2022-08-01T02:10:44;3.95;;;2.00;;
23676;SDS011;31493;49.058;12.190;2022-08-01T02:13:34;4.22;;;2.00;;
23676;SDS011;31493;49.058;12.190;2022-08-01T02:16:04;2.95;;;1.90;;
23676;SDS011;31493;49.058;12.190;2022-08-01T02:18:33;2.83;;;2.08;;
23676;SDS011;31493;49.058;12.190;2022-08-01T02:21:00;3.40;;;2.03;;
23676;SDS011;31493;49.058;12.190;2022-08-01T02:23:32;6.00;;;2.17;;
23676;SDS011;31493;49.058;12.190;2022-08-01T02:26:02;4.97;;;2.03;;
23676;SDS011;31493;49.058;12.190;2022-08-01T02:28:36;3.15;;;1.80;;
23676;SDS011;31493;49.058;12.190;2022-08-01T02:31:08;2.92;;;1.90;;
23676;SDS011;31493;49.058;12.190;2022-08-01T02:33:40;2.03;;;1.80;;
23676;SDS011;31493;49.058;12.190;2022-08-01T02:36:11;4.97;;;1.95;;
23676;SDS011;31493;49.058;12.190;2022-08-01T02:38:40;7.50;;;2.00;;
23676;SDS011;31493;49.058;12.190;2022-08-01T02:41:10;5.13;;;2.10;;
23676;SDS011;31493;49.058;12.190;2022-08-01T02:43:40;3.53;;;2.03;;
23676;SDS011;31493;49.058;12.190;2022-08-01T02:46:15;3.15;;;2.10;;
23676;SDS011;31493;49.058;12.190;2022-08-01T02:48:46;4.22;;;1.85;;
23676;SDS011;31493;49.058;12.190;2022-08-01T02:51:16;3.45;;;1.90;;
23676;SDS011;31493;49.058;12.190;2022-08-01T02:53:46;5.97;;;2.00;;
23676;SDS011;31493;49.058;12.190;2022-08-01T02:56:14;2.97;;;2.20;;
23676;SDS011;31493;49.058;12.190;2022-08-01T02:58:44;3.13;;;2.10;;
23676;SDS011;31493;49.058;12.190;2022-08-01T03:01:14;3.55;;;2.10;;
23676;SDS011;31493;49.058;12.190;2022-08-01T03:03:43;2.75;;;2.00;;
23676;SDS011;31493;49.058;12.190;2022-08-01T03:06:11;3.72;;;2.17;;
23676;SDS011;31493;49.058;12.190;2022-08-01T03:08:39;4.77;;;2.10;;
23676;SDS011;31493;49.058;12.190;2022-08-01T03:11:07;6.55;;;2.08;;
23676;SDS011;31493;49.058;12.190;2022-08-01T03:13:35;3.75;;;2.20;;
23676;SDS011;31493;49.058;12.190;2022-08-01T03:18:32;3.80;;;2.00;;
23676;SDS011;31493;49.058;12.190;2022-08-01T03:21:02;5.03;;;2.22;;
23676;SDS011;31493;49.058;12.190;2022-08-01T03:23:31;3.92;;;2.28;;
23676;SDS011;31493;49.058;12.190;2022-08-01T03:28:27;5.53;;;2.28;;
23676;SDS011;31493;49.058;12.190;2022-08-01T03:30:56;5.07;;;2.17;;
23676;SDS011;31493;49.058;12.190;2022-08-01T03:33:24;3.67;;;2.00;;
23676;SDS011;31493;49.058;12.190;2022-08-01T03:35:53;3.10;;;2.30;;
23676;SDS011;31493;49.058;12.190;2022-08-01T03:38:22;5.13;;;2.28;;
23676;SDS011;31493;49.058;12.190;2022-08-01T03:40:52;6.05;;;2.30;;
23676;SDS011;31493;49.058;12.190;2022-08-01T03:43:22;7.03;;;2.15;;
23676;SDS011;31493;49.058;12.190;2022-08-01T03:45:58;3.45;;;2.28;;
23676;SDS011;31493;49.058;12.190;2022-08-01T03:48:30;3.05;;;2.20;;
23676;SDS011;31493;49.058;12.190;2022-08-01T03:51:03;3.63;;;2.15;;
23676;SDS011;31493;49.058;12.190;2022-08-01T03:53:32;2.88;;;2.33;;
23676;SDS011;31493;49.058;12.190;2022-08-01T03:56:01;3.97;;;2.40;;
23676;SDS011;31493;49.058;12.190;2022-08-01T03:58:30;5.53;;;2.45;;
23676;SDS011;31493;49.058;12.190;2022-08-01T04:00:58;4.75;;;2.53;;
23676;SDS011;31493;49.058;12.190;2022-08-01T04:03:25;2.65;;;2.22;;
23676;SDS011;31493;49.058;12.190;2022-08-01T04:05:53;3.95;;;2.35;;
23676;SDS011;31493;49.058;12.190;2022-08-01T04:08:21;5.10;;;2.35;;
23676;SDS011;31493;49.058;12.190;2022-08-01T04:10:48;9.73;;;2.38;;
23676;SDS011;31493;49.058;12.190;2022-08-01T04:13:15;3.67;;;2.53;;
23676;SDS011;31493;49.058;12.190;2022-08-01T04:15:42;3.55;;;2.40;;
23676;SDS011;31493;49.058;12.190;2022-08-01T04:18:10;5.90;;;2.75;;
23676;SDS011;31493;49.058;12.190;2022-08-01T04:20:37;4.60;;;2.83;;
23676;SDS011;31493;49.058;12.190;2022-08-01T04:23:04;5.50;;;2.90;;
23676;SDS011;31493;49.058;12.190;2022-08-01T04:25:33;5.82;;;2.58;;
23676;SDS011;31493;49.058;12.190;2022-08-01T04:28:01;5.43;;;2.60;;
23676;SDS011;31493;49.058;12.190;2022-08-01T04:30:31;5.50;;;2.70;;
23676;SDS011;31493;49.058;12.190;2022-08-01T04:33:03;4.22;;;2.25;;
23676;SDS011;31493;49.058;12.190;2022-08-01T04:35:33;4.05;;;2.40;;
23676;SDS011;31493;49.058;12.190;2022-08-01T04:38:02;5.75;;;2.95;;
23676;SDS011;31493;49.058;12.190;2022-08-01T04:40:30;4.28;;;2.92;;
23676;SDS011;31493;49.058;12.190;2022-08-01T04:43:01;6.15;;;2.72;;
23676;SDS011;31493;49.058;12.190;2022-08-01T04:45:28;6.95;;;2.78;;
23676;SDS011;31493;49.058;12.190;2022-08-01T04:47:56;5.35;;;2.60;;
23676;SDS011;31493;49.058;12.190;2022-08-01T04:52:52;4.47;;;2.63;;
23676;SDS011;31493;49.058;12.190;2022-08-01T04:55:19;5.38;;;2.80;;
23676;SDS011;31493;49.058;12.190;2022-08-01T04:57:47;6.30;;;3.13;;
23676;SDS011;31493;49.058;12.190;2022-08-01T05:00:14;4.45;;;2.83;;
23676;SDS011;31493;49.058;12.190;2022-08-01T05:02:43;3.75;;;2.50;;
23676;SDS011;31493;49.058;12.190;2022-08-01T05:05:10;4.32;;;2.55;;
23676;SDS011;31493;49.058;12.190;2022-08-01T05:07:37;4.70;;;3.08;;
23676;SDS011;31493;49.058;12.190;2022-08-01T05:10:04;7.28;;;3.33;;
23676;SDS011;31493;49.058;12.190;2022-08-01T05:12:32;3.85;;;2.70;;
23676;SDS011;31493;49.058;12.190;2022-08-01T05:15:00;5.32;;;2.60;;
23676;SDS011;31493;49.058;12.190;2022-08-01T05:17:28;6.65;;;2.50;;
23676;SDS011;31493;49.058;12.190;2022-08-01T05:19:55;5.68;;;3.00;;
23676;SDS011;31493;49.058;12.190;2022-08-01T05:22:22;6.30;;;2.60;;
23676;SDS011;31493;49.058;12.190;2022-08-01T05:27:20;5.57;;;2.70;;
23676;SDS011;31493;49.058;12.190;2022-08-01T05:29:47;3.60;;;2.80;;
23676;SDS011;31493;49.058;12.190;2022-08-01T05:32:15;3.65;;;2.55;;
23676;SDS011;31493;49.058;12.190;2022-08-01T05:34:42;6.88;;;2.78;;
23676;SDS011;31493;49.058;12.190;2022-08-01T05:37:09;5.00;;;2.83;;
23676;SDS011;31493;49.058;12.190;2022-08-01T05:39:36;8.10;;;2.90;;
23676;SDS011;31493;49.058;12.190;2022-08-01T05:42:03;4.43;;;2.55;;
23676;SDS011;31493;49.058;12.190;2022-08-01T05:44:31;8.48;;;2.67;;
23676;SDS011;31493;49.058;12.190;2022-08-01T05:46:58;5.35;;;2.60;;
23676;SDS011;31493;49.058;12.190;2022-08-01T05:49:26;5.30;;;2.63;;
23676;SDS011;31493;49.058;12.190;2022-08-01T05:51:53;6.15;;;2.70;;
23676;SDS011;31493;49.058;12.190;2022-08-01T05:54:20;4.97;;;2.78;;
23676;SDS011;31493;49.058;12.190;2022-08-01T05:56:47;9.15;;;2.80;;
23676;SDS011;31493;49.058;12.190;2022-08-01T05:59:14;6.57;;;2.60;;
23676;SDS011;31493;49.058;12.190;2022-08-01T06:01:41;8.13;;;2.92;;
23676;SDS011;31493;49.058;12.190;2022-08-01T06:04:08;4.80;;;2.80;;
23676;SDS011;31493;49.058;12.190;2022-08-01T06:06:37;5.78;;;2.42;;
23676;SDS011;31493;49.058;12.190;2022-08-01T06:09:04;4.97;;;2.60;;
23676;SDS011;31493;49.058;12.190;2022-08-01T06:11:31;4.95;;;2.85;;
23676;SDS011;31493;49.058;12.190;2022-08-01T06:13:58;4.20;;;2.80;;
23676;SDS011;31493;49.058;12.190;2022-08-01T06:16:25;4.82;;;2.55;;
23676;SDS011;31493;49.058;12.190;2022-08-01T06:18:52;4.28;;;2.60;;
23676;SDS011;31493;49.058;12.190;2022-08-01T06:21:19;5.75;;;2.80;;
23676;SDS011;31493;49.058;12.190;2022-08-01T06:23:47;4.90;;;2.70;;
23676;SDS011;31493;49.058;12.190;2022-08-01T06:26:16;5.78;;;2.88;;
23676;SDS011;31493;49.058;12.190;2022-08-01T06:28:44;5.53;;;2.50;;
23676;SDS011;31493;49.058;12.190;2022-08-01T06:31:11;4.88;;;2.58;;
23676;SDS011;31493;49.058;12.190;2022-08-01T06:33:39;9.10;;;2.67;;
23676;SDS011;31493;49.058;12.190;2022-08-01T06:36:06;7.28;;;2.40;;
23676;SDS011;31493;49.058;12.190;2022-08-01T06:38:34;6.38;;;2.10;;
23676;SDS011;31493;49.058;12.190;2022-08-01T06:41:03;6.13;;;1.83;;
23676;SDS011;31493;49.058;12.190;2022-08-01T06:43:30;2.83;;;1.85;;
23676;SDS011;31493;49.058;12.190;2022-08-01T06:45:57;4.75;;;1.80;;
23676;SDS011;31493;49.058;12.190;2022-08-01T06:48:24;5.53;;;1.92;;
23676;SDS011;31493;49.058;12.190;2022-08-01T06:50:52;4.22;;;1.73;;
23676;SDS011;31493;49.058;12.190;2022-08-01T06:53:33;3.53;;;1.70;;
23676;SDS011;31493;49.058;12.190;2022-08-01T06:56:00;3.97;;;1.40;;
23676;SDS011;31493;49.058;12.190;2022-08-01T06:58:29;4.85;;;1.48;;
23676;SDS011;31493;49.058;12.190;2022-08-01T07:00:56;6.32;;;1.27;;
23676;SDS011;31493;49.058;12.190;2022-08-01T07:03:23;4.93;;;1.60;;
23676;SDS011;31493;49.058;12.190;2022-08-01T07:05:50;5.53;;;1.52;;
23676;SDS011;31493;49.058;12.190;2022-08-01T07:08:17;4.82;;;1.40;;
23676;SDS011;31493;49.058;12.190;2022-08-01T07:10:44;3.55;;;1.33;;
23676;SDS011;31493;49.058;12.190;2022-08-01T07:13:11;5.32;;;1.25;;
23676;SDS011;31493;49.058;12.190;2022-08-01T07:18:08;5.53;;;1.50;;
23676;SDS011;31493;49.058;12.190;2022-08-01T07:20:36;3.17;;;1.30;;
23676;SDS011;31493;49.058;12.190;2022-08-01T07:23:04;2.90;;;1.60;;
23676;SDS011;31493;49.058;12.190;2022-08-01T07:25:31;2.58;;;1.58;;
23676;SDS011;31493;49.058;12.190;2022-08-01T07:27:58;3.20;;;1.60;;
23676;SDS011;31493;49.058;12.190;2022-08-01T07:30:25;3.30;;;1.60;;
23676;SDS011;31493;49.058;12.190;2022-08-01T07:32:54;4.95;;;1.50;;
23676;SDS011;31493;49.058;12.190;2022-08-01T07:35:21;3.72;;;1.58;;
23676;SDS011;31493;49.058;12.190;2022-08-01T07:37:48;4.20;;;1.52;;
23676;SDS011;31493;49.058;12.190;2022-08-01T07:40:15;2.83;;;1.50;;
23676;SDS011;31493;49.058;12.190;2022-08-01T07:42:44;1.65;;;1.33;;
23676;SDS011;31493;49.058;12.190;2022-08-01T07:45:11;3.13;;;1.40;;
23676;SDS011;31493;49.058;12.190;2022-08-01T07:47:39;2.45;;;1.70;;
23676;SDS011;31493;49.058;12.190;2022-08-01T07:50:08;5.53;;;1.80;;
23676;SDS011;31493;49.058;12.190;2022-08-01T07:52:36;2.38;;;1.60;;
23676;SDS011;31493;49.058;12.190;2022-08-01T07:55:03;4.45;;;1.45;;
23676;SDS011;31493;49.058;12.190;2022-08-01T07:57:31;4.97;;;1.50;;
23676;SDS011;31493;49.058;12.190;2022-08-01T07:59:58;3.65;;;1.45;;
23676;SDS011;31493;49.058;12.190;2022-08-01T08:02:25;1.58;;;1.35;;
23676;SDS011;31493;49.058;12.190;2022-08-01T08:04:52;3.60;;;1.80;;
23676;SDS011;31493;49.058;12.190;2022-08-01T08:07:20;5.55;;;1.60;;
23676;SDS011;31493;49.058;12.190;2022-08-01T08:09:47;3.63;;;1.60;;
23676;SDS011;31493;49.058;12.190;2022-08-01T08:12:14;4.20;;;1.60;;
23676;SDS011;31493;49.058;12.190;2022-08-01T08:14:41;2.65;;;1.75;;
23676;SDS011;31493;49.058;12.190;2022-08-01T08:17:08;5.13;;;1.80;;
23676;SDS011;31493;49.058;12.190;2022-08-01T08:19:36;4.47;;;1.73;;
23676;SDS011;31493;49.058;12.190;2022-08-01T08:22:05;4.03;;;1.70;;
23676;SDS011;31493;49.058;12.190;2022-08-01T08:24:34;4.80;;;1.80;;
23676;SDS011;31493;49.058;12.190;2022-08-01T08:29:29;7.00;;;1.85;;
23676;SDS011;31493;49.058;12.190;2022-08-01T08:31:57;4.82;;;1.70;;
23676;SDS011;31493;49.058;12.190;2022-08-01T08:34:26;4.50;;;1.65;;
23676;SDS011;31493;49.058;12.190;2022-08-01T08:36:54;5.35;;;1.85;;
23676;SDS011;31493;49.058;12.190;2022-08-01T08:39:23;2.53;;;1.52;;
23676;SDS011;31493;49.058;12.190;2022-08-01T08:41:51;3.97;;;1.90;;
23676;SDS011;31493;49.058;12.190;2022-08-01T08:46:47;5.15;;;1.50;;
23676;SDS011;31493;49.058;12.190;2022-08-01T08:49:17;2.95;;;1.50;;
23676;SDS011;31493;49.058;12.190;2022-08-01T08:51:47;2.42;;;1.33;;
23676;SDS011;31493;49.058;12.190;2022-08-01T08:54:16;2.58;;;1.50;;
23676;SDS011;31493;49.058;12.190;2022-08-01T08:56:45;1.42;;;1.10;;
23676;SDS011;31493;49.058;12.190;2022-08-01T08:59:14;3.63;;;1.38;;
23676;SDS011;31493;49.058;12.190;2022-08-01T09:01:41;3.10;;;1.58;;
23676;SDS011;31493;49.058;12.190;2022-08-01T09:04:09;4.63;;;1.30;;
23676;SDS011;31493;49.058;12.190;2022-08-01T09:06:37;2.63;;;1.30;;
23676;SDS011;31493;49.058;12.190;2022-08-01T09:09:05;3.20;;;1.40;;
23676;SDS011;31493;49.058;12.190;2022-08-01T09:11:34;2.70;;;1.33;;
23676;SDS011;31493;49.058;12.190;2022-08-01T09:14:03;4.80;;;1.38;;
23676;SDS011;31493;49.058;12.190;2022-08-01T09:16:33;3.53;;;1.45;;
23676;SDS011;31493;49.058;12.190;2022-08-01T09:19:06;1.92;;;1.30;;
23676;SDS011;31493;49.058;12.190;2022-08-01T09:21:35;4.50;;;1.23;;
23676;SDS011;31493;49.058;12.190;2022-08-01T09:24:02;8.60;;;1.58;;
23676;SDS011;31493;49.058;12.190;2022-08-01T09:28:59;2.15;;;1.20;;
23676;SDS011;31493;49.058;12.190;2022-08-01T09:31:28;1.55;;;1.15;;
23676;SDS011;31493;49.058;12.190;2022-08-01T09:33:58;2.40;;;1.10;;
23676;SDS011;31493;49.058;12.190;2022-08-01T09:36:44;2.55;;;1.15;;
23676;SDS011;31493;49.058;12.190;2022-08-01T09:39:17;2.42;;;1.70;;
23676;SDS011;31493;49.058;12.190;2022-08-01T09:41:45;5.88;;;1.27;;
23676;SDS011;31493;49.058;12.190;2022-08-01T09:44:13;5.55;;;1.33;;
23676;SDS011;31493;49.058;12.190;2022-08-01T09:46:48;1.50;;;1.02;;
23676;SDS011;31493;49.058;12.190;2022-08-01T09:49:30;2.38;;;1.20;;
23676;SDS011;31493;49.058;12.190;2022-08-01T09:52:09;5.53;;;1.10;;
23676;SDS011;31493;49.058;12.190;2022-08-01T09:54:37;3.10;;;1.30;;
23676;SDS011;31493;49.058;12.190;2022-08-01T09:57:08;2.35;;;1.20;;
23676;SDS011;31493;49.058;12.190;2022-08-01T09:59:38;1.55;;;1.00;;
23676;SDS011;31493;49.058;12.190;2022-08-01T10:02:08;2.20;;;1.10;;
23676;SDS011;31493;49.058;12.190;2022-08-01T10:04:37;7.35;;;1.20;;
23676;SDS011;31493;49.058;12.190;2022-08-01T10:07:05;6.80;;;1.27;;
23676;SDS011;31493;49.058;12.190;2022-08-01T10:09:34;3.05;;;1.15;;
23676;SDS011;31493;49.058;12.190;2022-08-01T10:12:03;2.83;;;1.23;;
23676;SDS011;31493;49.058;12.190;2022-08-01T10:14:31;2.17;;;1.00;;
23676;SDS011;31493;49.058;12.190;2022-08-01T10:16:59;2.13;;;0.90;;
23676;SDS011;31493;49.058;12.190;2022-08-01T10:19:28;2.80;;;1.20;;
23676;SDS011;31493;49.058;12.190;2022-08-01T10:24:25;2.65;;;1.00;;
23676;SDS011;31493;49.058;12.190;2022-08-01T10:26:55;3.60;;;1.15;;
23676;SDS011;31493;49.058;12.190;2022-08-01T10:29:28;2.03;;;1.10;;
23676;SDS011;31493;49.058;12.190;2022-08-01T10:32:00;3.40;;;1.10;;
23676;SDS011;31493;49.058;12.190;2022-08-01T10:34:27;3.28;;;1.10;;
23676;SDS011;31493;49.058;12.190;2022-08-01T10:36:58;1.85;;;0.98;;
23676;SDS011;31493;49.058;12.190;2022-08-01T10:39:25;3.53;;;0.95;;
23676;SDS011;31493;49.058;12.190;2022-08-01T10:41:55;2.47;;;0.80;;
23676;SDS011;31493;49.058;12.190;2022-08-01T10:44:22;3.17;;;1.05;;
23676;SDS011;31493;49.058;12.190;2022-08-01T10:46:52;2.58;;;1.10;;
23676;SDS011;31493;49.058;12.190;2022-08-01T10:49:25;4.93;;;1.00;;
23676;SDS011;31493;49.058;12.190;2022-08-01T10:51:54;4.22;;;0.90;;
23676;SDS011;31493;49.058;12.190;2022-08-01T10:54:25;0.95;;;0.80;;
23676;SDS011;31493;49.058;12.190;2022-08-01T10:56:52;5.10;;;1.05;;
23676;SDS011;31493;49.058;12.190;2022-08-01T10:59:22;3.08;;;1.17;;
23676;SDS011;31493;49.058;12.190;2022-08-01T11:01:57;4.05;;;1.05;;
23676;SDS011;31493;49.058;12.190;2022-08-01T11:04:37;2.17;;;1.20;;
23676;SDS011;31493;49.058;12.190;2022-08-01T11:07:12;2.17;;;1.00;;
23676;SDS011;31493;49.058;12.190;2022-08-01T11:09:45;3.28;;;1.15;;
23676;SDS011;31493;49.058;12.190;2022-08-01T11:12:15;2.55;;;0.88;;
23676;SDS011;31493;49.058;12.190;2022-08-01T11:17:51;2.25;;;0.98;;
23676;SDS011;31493;49.058;12.190;2022-08-01T11:20:19;3.00;;;1.05;;
23676;SDS011;31493;49.058;12.190;2022-08-01T11:26:07;4.18;;;0.90;;
23676;SDS011;31493;49.058;12.190;2022-08-01T11:28:36;2.05;;;0.95;;
23676;SDS011;31493;49.058;12.190;2022-08-01T11:33:55;3.45;;;1.10;;
23676;SDS011;31493;49.058;12.190;2022-08-01T11:36:22;4.45;;;1.08;;
23676;SDS011;31493;49.058;12.190;2022-08-01T11:38:50;4.00;;;1.15;;
23676;SDS011;31493;49.058;12.190;2022-08-01T11:41:40;1.95;;;1.10;;
23676;SDS011;31493;49.058;12.190;2022-08-01T11:44:08;3.50;;;1.00;;
23676;SDS011;31493;49.058;12.190;2022-08-01T11:49:45;1.48;;;1.00;;
23676;SDS011;31493;49.058;12.190;2022-08-01T11:52:17;2.45;;;1.17;;
23676;SDS011;31493;49.058;12.190;2022-08-01T11:54:48;1.85;;;0.98;;
23676;SDS011;31493;49.058;12.190;2022-08-01T11:57:18;1.52;;;1.10;;
23676;SDS011;31493;49.058;12.190;2022-08-01T11:59:47;3.08;;;0.90;;
23676;SDS011;31493;49.058;12.190;2022-08-01T12:02:16;4.28;;;0.80;;
23676;SDS011;31493;49.058;12.190;2022-08-01T12:04:44;1.42;;;0.90;;
23676;SDS011;31493;49.058;12.190;2022-08-01T12:07:13;1.80;;;1.08;;
23676;SDS011;31493;49.058;12.190;2022-08-01T12:09:40;2.35;;;0.90;;
23676;SDS011;31493;49.058;12.190;2022-08-01T12:12:10;4.68;;;1.10;;
23676;SDS011;31493;49.058;12.190;2022-08-01T12:14:37;3.80;;;1.00;;
23676;SDS011;31493;49.058;12.190;2022-08-01T12:17:05;5.28;;;1.30;;
23676;SDS011;31493;49.058;12.190;2022-08-01T12:19:32;3.20;;;0.85;;
23676;SDS011;31493;49.058;12.190;2022-08-01T12:22:04;2.28;;;1.10;;
23676;SDS011;31493;49.058;12.190;2022-08-01T12:24:33;1.48;;;0.88;;
23676;SDS011;31493;49.058;12.190;2022-08-01T12:27:01;7.32;;;1.10;;
23676;SDS011;31493;49.058;12.190;2022-08-01T12:29:36;3.88;;;1.10;;
23676;SDS011;31493;49.058;12.190;2022-08-01T12:32:13;1.80;;;0.90;;
23676;SDS011;31493;49.058;12.190;2022-08-01T12:34:49;2.25;;;1.15;;
23676;SDS011;31493;49.058;12.190;2022-08-01T12:37:17;1.98;;;0.90;;
23676;SDS011;31493;49.058;12.190;2022-08-01T12:39:44;4.68;;;1.10;;
23676;SDS011;31493;49.058;12.190;2022-08-01T12:42:13;1.48;;;1.00;;
23676;SDS011;31493;49.058;12.190;2022-08-01T12:44:43;2.92;;;1.15;;
23676;SDS011;31493;49.058;12.190;2022-08-01T12:47:12;1.45;;;1.00;;
23676;SDS011;31493;49.058;12.190;2022-08-01T12:49:41;2.05;;;1.20;;
23676;SDS011;31493;49.058;12.190;2022-08-01T12:52:10;2.25;;;1.17;;
23676;SDS011;31493;49.058;12.190;2022-08-01T12:57:27;2.05;;;1.20;;
23676;SDS011;31493;49.058;12.190;2022-08-01T13:00:05;3.03;;;1.08;;
23676;SDS011;31493;49.058;12.190;2022-08-01T13:02:34;3.05;;;1.17;;
23676;SDS011;31493;49.058;12.190;2022-08-01T13:05:02;1.25;;;0.90;;
23676;SDS011;31493;49.058;12.190;2022-08-01T13:07:37;3.35;;;0.90;;
23676;SDS011;31493;49.058;12.190;2022-08-01T13:10:05;1.98;;;0.90;;
23676;SDS011;31493;49.058;12.190;2022-08-01T13:12:34;2.05;;;0.98;;
23676;SDS011;31493;49.058;12.190;2022-08-01T13:17:47;3.20;;;0.82;;
23676;SDS011;31493;49.058;12.190;2022-08-01T13:20:30;1.80;;;1.08;;
23676;SDS011;31493;49.058;12.190;2022-08-01T13:23:12;2.55;;;1.00;;
23676;SDS011;31493;49.058;12.190;2022-08-01T13:25:51;2.15;;;0.90;;
23676;SDS011;31493;49.058;12.190;2022-08-01T13:28:20;2.13;;;0.95;;
23676;SDS011;31493;49.058;12.190;2022-08-01T13:30:57;1.75;;;1.25;;
23676;SDS011;31493;49.058;12.190;2022-08-01T13:33:26;1.38;;;1.00;;
23676;SDS011;31493;49.058;12.190;2022-08-01T13:35:56;5.03;;;1.02;;
23676;SDS011;31493;49.058;12.190;2022-08-01T13:38:23;1.85;;;0.95;;
23676;SDS011;31493;49.058;12.190;2022-08-01T13:41:04;4.20;;;0.93;;
23676;SDS011;31493;49.058;12.190;2022-08-01T13:43:31;2.25;;;1.13;;
23676;SDS011;31493;49.058;12.190;2022-08-01T13:46:00;2.60;;;1.00;;
23676;SDS011;31493;49.058;12.190;2022-08-01T13:48:28;2.03;;;0.80;;
23676;SDS011;31493;49.058;12.190;2022-08-01T13:50:55;1.40;;;0.88;;
23676;SDS011;31493;49.058;12.190;2022-08-01T13:53:22;2.08;;;1.00;;
23676;SDS011;31493;49.058;12.190;2022-08-01T13:55:49;1.27;;;0.90;;
23676;SDS011;31493;49.058;12.190;2022-08-01T13:58:16;3.40;;;0.80;;
23676;SDS011;31493;49.058;12.190;2022-08-01T14:00:43;3.90;;;0.80;;
23676;SDS011;31493;49.058;12.190;2022-08-01T14:03:12;1.85;;;0.75;;
23676;SDS011;31493;49.058;12.190;2022-08-01T14:05:39;1.45;;;0.90;;
23676;SDS011;31493;49.058;12.190;2022-08-01T14:08:07;1.48;;;0.85;;
23676;SDS011;31493;49.058;12.190;2022-08-01T14:10:34;3.25;;;0.80;;
23676;SDS011;31493;49.058;12.190;2022-08-01T14:13:02;2.00;;;0.80;;
23676;SDS011;31493;49.058;12.190;2022-08-01T14:15:29;4.72;;;0.82;;
23676;SDS011;31493;49.058;12.190;2022-08-01T14:17:57;2.35;;;0.80;;
23676;SDS011;31493;49.058;12.190;2022-08-01T14:20:26;4.03;;;0.85;;
23676;SDS011;31493;49.058;12.190;2022-08-01T14:22:53;3.03;;;0.80;;
23676;SDS011;31493;49.058;12.190;2022-08-01T14:25:20;1.15;;;0.90;;
23676;SDS011;31493;49.058;12.190;2022-08-01T14:27:47;3.47;;;0.77;;
23676;SDS011;31493;49.058;12.190;2022-08-01T14:30:14;4.13;;;0.90;;
23676;SDS011;31493;49.058;12.190;2022-08-01T14:32:41;2.13;;;0.80;;
23676;SDS011;31493;49.058;12.190;2022-08-01T14:35:08;1.23;;;0.77;;
23676;SDS011;31493;49.058;12.190;2022-08-01T14:37:37;2.35;;;0.70;;
23676;SDS011;31493;49.058;12.190;2022-08-01T14:40:05;1.25;;;0.68;;
23676;SDS011;31493;49.058;12.190;2022-08-01T14:42:35;1.38;;;0.65;;
23676;SDS011;31493;49.058;12.190;2022-08-01T14:45:02;3.28;;;0.70;;
23676;SDS011;31493;49.058;12.190;2022-08-01T14:47:34;3.63;;;0.70;;
23676;SDS011;31493;49.058;12.190;2022-08-01T14:50:03;2.85;;;0.60;;
23676;SDS011;31493;49.058;12.190;2022-08-01T14:52:32;1.98;;;1.08;;
23676;SDS011;31493;49.058;12.190;2022-08-01T14:55:01;8.75;;;6.45;;
23676;SDS011;31493;49.058;12.190;2022-08-01T14:57:29;3.67;;;1.60;;
23676;SDS011;31493;49.058;12.190;2022-08-01T14:59:57;4.05;;;1.38;;
23676;SDS011;31493;49.058;12.190;2022-08-01T15:02:24;3.58;;;0.80;;
23676;SDS011;31493;49.058;12.190;2022-08-01T15:04:51;5.78;;;0.80;;
23676;SDS011;31493;49.058;12.190;2022-08-01T15:07:19;1.02;;;0.60;;
23676;SDS011;31493;49.058;12.190;2022-08-01T15:09:46;1.00;;;0.60;;
23676;SDS011;31493;49.058;12.190;2022-08-01T15:12:14;2.22;;;0.70;;
23676;SDS011;31493;49.058;12.190;2022-08-01T15:14:41;1.88;;;0.60;;
23676;SDS011;31493;49.058;12.190;2022-08-01T15:17:14;3.15;;;0.60;;
23676;SDS011;31493;49.058;12.190;2022-08-01T15:19:42;1.48;;;0.52;;
23676;SDS011;31493;49.058;12.190;2022-08-01T15:22:09;2.42;;;0.70;;
23676;SDS011;31493;49.058;12.190;2022-08-01T15:24:36;3.53;;;0.60;;
23676;SDS011;31493;49.058;12.190;2022-08-01T15:27:03;2.40;;;0.55;;
23676;SDS011;31493;49.058;12.190;2022-08-01T15:29:32;4.17;;;0.80;;